METAR Data
IDs: Format: Raw Decoded Include TAF

Data at: 0209 UTC 19 Oct 2021

PALG 190156Z AUTO 09004KT 10SM CLR M02/M05 A2956 RMK AO2 SLP015 T10171050 FZRANO
PALG 190056Z AUTO VRB05KT 10SM CLR M01/M04 A2959 RMK AO2 SLP022 T10061044 FZRANO
PALG 182356Z AUTO 12004KT 10SM CLR M01/M04 A2961 RMK AO2 SLP030 T10061044 10006 21078 57029 FZRANO
PALG 182256Z AUTO 11005KT 10SM CLR M01/M04 A2964 RMK AO2 SLP040 T10061039 FZRANO
PALG 182156Z AUTO 11004KT 10SM CLR M02/M04 A2967 RMK AO2 SLP050 T10171044 FZRANO
PALG 182056Z AUTO VRB04KT 10SM CLR M02/M05 A2970 RMK AO2 SLP060 T10221050 58013 FZRANO
PALG 181956Z AUTO VRB04KT 10SM CLR M03/M05 A2971 RMK AO2 SLP064 T10331050 FZRANO
PALG 181856Z AUTO 00000KT 10SM CLR M04/M06 A2973 RMK AO2 SLP070 T10441056 FZRANO
PALG 181756Z AUTO 00000KT 10SM CLR M08/M08 A2973 RMK AO2 SLP072 T10781083 11050 21094 58007 FZRANO
PALG 181656Z AUTO 00000KT 7SM CLR M09/M11 A2975 RMK AO2 SLP078 T10891106 FZRANO
PALG 181556Z AUTO 00000KT 10SM CLR M07/M08 A2975 RMK AO2 SLP079 T10671078 FZRANO
PALG 181456Z AUTO 01004KT 10SM CLR M06/M07 A2975 RMK AO2 SLP079 T10561067 51006 FZRANO
PALG 181356Z AUTO 35004KT 10SM CLR M06/M07 A2975 RMK AO2 SLP077 T10561072 FZRANO
PALG 181256Z AUTO 00000KT 10SM CLR M06/M07 A2974 RMK AO2 SLP076 T10561072 FZRANO
PALG 181156Z AUTO 00000KT 10SM CLR M05/M07 A2973 RMK AO2 SLP073 T10501067 11022 21050 51015 FZRANO
PALG 181056Z AUTO 00000KT 10SM CLR M05/M07 A2973 RMK AO2 SLP070 T10501072 FZRANO
PALG 180956Z AUTO 00000KT 10SM CLR M04/M07 A2971 RMK AO2 SLP065 T10441067 FZRANO
PALG 180856Z AUTO 25004KT 10SM CLR M04/M06 A2969 RMK AO2 SLP058 T10391061 53027 FZRANO
PALG 180756Z AUTO 00000KT 10SM CLR M04/M07 A2966 RMK AO2 SLP048 T10391067 400111039 FZRANO
PALG 180656Z AUTO 26005KT 10SM CLR M03/M06 A2963 RMK AO2 SLP039 T10331061 FZRANO
PALG 180556Z AUTO 00000KT 10SM CLR M02/M06 A2961 RMK AO2 SLP031 T10221056 10011 21022 51034 FZRANO
PALG 180456Z AUTO VRB03KT 10SM CLR M02/M05 A2958 RMK AO2 SLP021 T10171050 FZRANO
PALG 180356Z AUTO VRB05KT 10SM FEW090 M01/M05 A2955 RMK AO2 SLP010 T10111050 FZRANO
PALG 180256Z AUTO VRB03G16KT 10SM OVC080 M01/M04 A2951 RMK AO2 PRESRR SLP997 T10061044 53038 FZRANO
PALG 180156Z AUTO 36014G22KT 10SM BKN070 OVC085 00/M05 A2946 RMK AO2 SLP979 T00001050 FZRANO
PALG 180056Z AUTO 01012G20KT 10SM FEW095 01/M05 A2943 RMK AO2 SLP968 T00061050 FZRANO
PALG 172356Z AUTO 01009G17KT 10SM FEW070 BKN090 01/M04 A2940 RMK AO2 SLP959 60000 T00111044 10011 20000 51023 FZRANO
PALG 172256Z AUTO 02011G19KT 10SM FEW075 OVC110 00/M05 A2939 RMK AO2 SLP955 T00001050 FZRANO
PALG 172156Z AUTO 02010G15KT 10SM BKN070 OVC085 01/M06 A2937 RMK AO2 SLP948 T00061056 FZRANO
PALG 172056Z AUTO 02012G19KT 10SM OVC100 01/M06 A2933 RMK AO2 SLP936 60000 T00061056 53032 FZRANO
PALG 171956Z AUTO 02009G20KT 10SM OVC095 01/M06 A2930 RMK AO2 SLP925 T00111056 FZRANO
PALG 171856Z AUTO 04011G23KT 360V070 10SM OVC100 01/M06 A2926 RMK AO2 RAB09E34SNE09 SLP912 P0000 T00111061 FZRANO
PALG 171756Z AUTO 04014G25KT 10SM -SN OVC100 01/M06 A2924 RMK AO2 RAB46E56SNB56 SLP904 P0000 60000 T00061056 10011 20006 53017 FZRANO
PALG 171656Z AUTO 04011G22KT 010V070 10SM SCT100 01/M06 A2921 RMK AO2 SLP895 T00061061 FZRANO